createdAt,value
2023-03-24T05:16:17.959Z,16.54
2023-03-24T05:18:44.478Z,16.58
2023-03-24T05:21:11.253Z,16.60
2023-03-24T05:23:37.727Z,16.59
2023-03-24T05:26:04.469Z,16.62
2023-03-24T05:28:31.184Z,16.64
2023-03-24T05:30:57.785Z,16.65
2023-03-24T05:33:24.348Z,16.67
2023-03-24T05:35:51.220Z,16.63
2023-03-24T05:38:18.351Z,16.67
2023-03-24T05:40:44.853Z,16.71
2023-03-24T05:43:12.488Z,16.71
2023-03-24T05:45:39.450Z,16.73
2023-03-24T05:48:06.346Z,16.74
2023-03-24T05:50:33.264Z,16.73
2023-03-24T05:53:00.508Z,16.76
2023-03-24T05:55:27.577Z,16.75
2023-03-24T05:57:54.190Z,16.75
2023-03-24T06:00:20.995Z,16.76
2023-03-24T06:02:47.550Z,16.78
2023-03-24T06:05:14.204Z,16.78
2023-03-24T06:07:42.561Z,16.78
2023-03-24T06:10:11.424Z,16.78
2023-03-24T06:12:38.551Z,16.80
2023-03-24T06:15:06.001Z,16.81
2023-03-24T06:17:32.603Z,16.79
2023-03-24T06:20:05.723Z,16.83
2023-03-24T06:22:33.710Z,16.80
2023-03-24T06:25:00.168Z,16.85
2023-03-24T06:27:30.425Z,16.86
2023-03-24T06:29:57.573Z,16.88
2023-03-24T06:32:24.440Z,16.89
2023-03-24T06:34:51.082Z,16.88
2023-03-24T06:37:17.649Z,16.90
2023-03-24T06:39:44.380Z,16.91
2023-03-24T06:42:10.897Z,16.92
2023-03-24T06:44:37.530Z,16.93
2023-03-24T06:47:04.250Z,16.92
2023-03-24T06:49:30.953Z,16.96
2023-03-24T06:51:57.448Z,16.94
2023-03-24T06:54:23.895Z,16.91
2023-03-24T06:56:50.411Z,16.94
2023-03-24T06:59:18.007Z,16.93
2023-03-24T07:01:44.542Z,16.89
2023-03-24T07:04:11.458Z,16.94
2023-03-24T07:06:50.901Z,16.89
2023-03-24T07:09:26.150Z,16.86
2023-03-24T07:11:52.578Z,16.80
2023-03-24T07:14:19.237Z,16.85
2023-03-24T07:16:45.774Z,16.83
2023-03-24T07:19:12.481Z,16.83
2023-03-24T07:21:38.927Z,16.84
2023-03-24T07:24:05.608Z,16.69
2023-03-24T07:26:32.048Z,16.78
2023-03-24T07:28:58.516Z,16.80
2023-03-24T07:31:25.218Z,16.78
2023-03-24T07:33:51.948Z,16.77
2023-03-24T07:36:18.433Z,16.81
2023-03-24T07:38:44.973Z,16.86
2023-03-24T07:41:11.468Z,16.85
2023-03-24T07:43:37.969Z,16.90
2023-03-24T07:46:04.477Z,16.86
2023-03-24T07:48:31.018Z,16.93
2023-03-24T07:50:57.510Z,16.97
2023-03-24T07:53:24.049Z,16.90
2023-03-24T07:55:50.793Z,16.94
2023-03-24T07:58:17.363Z,16.95
2023-03-24T08:00:44.808Z,16.98
2023-03-24T08:03:14.576Z,17.03
2023-03-24T08:05:41.845Z,17.02
2023-03-24T08:08:08.366Z,17.03
2023-03-24T08:10:35.163Z,17.10
2023-03-24T08:13:02.706Z,17.09
2023-03-24T08:15:29.181Z,17.14
2023-03-24T08:17:56.944Z,17.16
2023-03-24T08:20:25.098Z,17.17
2023-03-24T08:22:54.448Z,17.21
2023-03-24T08:25:22.650Z,17.25
2023-03-24T08:27:49.164Z,17.27
2023-03-24T08:30:20.441Z,17.33
2023-03-24T08:32:48.549Z,17.29
2023-03-24T08:35:16.119Z,17.37
2023-03-24T08:37:43.464Z,17.42
2023-03-24T08:40:14.360Z,17.44
2023-03-24T08:42:41.535Z,17.48
2023-03-24T08:45:09.754Z,17.51
2023-03-24T08:47:36.271Z,17.53
2023-03-24T08:50:02.752Z,17.60
2023-03-24T08:52:29.204Z,17.68
2023-03-24T08:54:55.706Z,17.71
2023-03-24T08:57:22.316Z,17.76
2023-03-24T08:59:50.927Z,17.86
2023-03-24T09:02:17.928Z,17.98
2023-03-24T09:04:45.992Z,18.04
2023-03-24T09:07:12.730Z,18.11
2023-03-24T09:09:40.124Z,18.13
2023-03-24T09:12:06.753Z,18.23
2023-03-24T09:14:33.350Z,18.26
2023-03-24T09:16:59.778Z,18.27
2023-03-24T09:19:26.308Z,18.26
2023-03-24T09:21:52.821Z,18.21
2023-03-24T09:24:19.296Z,18.17
2023-03-24T09:26:46.033Z,18.15
2023-03-24T09:29:12.478Z,18.07
2023-03-24T09:31:38.989Z,18.03
2023-03-24T09:34:05.507Z,17.98
2023-03-24T09:36:34.864Z,17.88
2023-03-24T09:39:01.313Z,17.82
2023-03-24T09:41:29.176Z,17.81
2023-03-24T09:44:28.254Z,17.75
2023-03-24T09:46:57.388Z,17.73
2023-03-24T09:49:27.753Z,17.68
2023-03-24T09:51:56.929Z,17.68
2023-03-24T09:54:26.279Z,17.63
2023-03-24T09:56:54.645Z,17.68
2023-03-24T09:59:36.390Z,17.62
2023-03-24T10:02:10.576Z,17.58
2023-03-24T10:04:37.346Z,17.63
2023-03-24T10:07:16.333Z,17.63
2023-03-24T10:09:44.884Z,17.67
2023-03-24T10:12:11.510Z,17.66
2023-03-24T10:14:44.108Z,17.67
2023-03-24T10:17:13.622Z,17.68
2023-03-24T10:20:03.506Z,17.70
2023-03-24T10:22:32.892Z,17.70
2023-03-24T10:24:59.488Z,17.74
2023-03-24T10:27:34.757Z,17.76
2023-03-24T10:30:05.055Z,17.78
2023-03-24T10:32:34.541Z,17.81
2023-03-24T10:35:09.749Z,17.89
2023-03-24T10:37:37.052Z,17.94
2023-03-24T10:40:12.578Z,18.02
2023-03-24T10:42:39.372Z,18.06
2023-03-24T10:45:06.229Z,18.11
2023-03-24T10:47:34.223Z,18.19
2023-03-24T10:50:12.026Z,18.24
2023-03-24T10:52:42.194Z,18.27
2023-03-24T10:55:14.309Z,18.32
2023-03-24T10:57:43.128Z,18.40
2023-03-24T11:00:19.057Z,18.44
2023-03-24T11:02:54.140Z,18.57
2023-03-24T11:05:23.633Z,18.63
2023-03-24T11:07:51.831Z,18.74
2023-03-24T11:10:21.097Z,18.80
2023-03-24T11:12:53.602Z,18.82
2023-03-24T11:15:22.873Z,18.86
2023-03-24T11:18:01.766Z,18.89
2023-03-24T11:20:33.128Z,18.91
2023-03-24T11:23:19.225Z,18.90
2023-03-24T11:25:49.814Z,18.96
2023-03-24T11:28:18.084Z,19.00
2023-03-24T11:30:49.167Z,19.07
2023-03-24T11:33:19.243Z,19.19
2023-03-24T11:35:50.333Z,19.23
2023-03-24T11:38:29.675Z,19.36
2023-03-24T11:41:00.891Z,19.45
2023-03-24T11:43:28.261Z,19.56
2023-03-24T11:46:05.173Z,19.62
2023-03-24T11:48:34.742Z,19.70
2023-03-24T11:51:01.466Z,19.76
2023-03-24T11:53:31.767Z,19.82
2023-03-24T11:56:06.960Z,19.86
2023-03-24T11:58:46.220Z,19.89
2023-03-24T12:01:12.702Z,19.92
2023-03-24T12:03:58.028Z,19.93
2023-03-24T12:06:30.456Z,19.96
2023-03-24T12:09:09.508Z,19.94
2023-03-24T12:11:44.831Z,19.94
2023-03-24T12:14:11.282Z,19.94
2023-03-24T12:16:52.024Z,19.94
2023-03-24T12:19:21.567Z,19.93
2023-03-24T12:22:13.243Z,19.92
2023-03-24T12:24:58.333Z,19.88
2023-03-24T12:27:43.457Z,19.86
2023-03-24T12:30:20.090Z,19.79
2023-03-24T12:32:56.473Z,19.76
2023-03-24T12:35:46.966Z,19.74
2023-03-24T12:38:16.585Z,19.68
2023-03-24T12:40:46.040Z,19.53
2023-03-24T12:43:24.431Z,19.57
2023-03-24T12:45:53.505Z,19.53
2023-03-24T12:48:46.486Z,19.50
2023-03-24T12:51:23.093Z,19.45
2023-03-24T12:54:09.897Z,19.42
2023-03-24T12:56:39.789Z,19.44
2023-03-24T12:59:20.061Z,19.46
2023-03-24T13:01:50.310Z,19.51
2023-03-24T13:04:26.571Z,19.56
2023-03-24T13:07:02.193Z,19.64
2023-03-24T13:09:40.192Z,19.70
2023-03-24T13:12:21.279Z,19.79
2023-03-24T13:14:53.988Z,19.83
2023-03-24T13:17:31.062Z,19.83
2023-03-24T13:19:58.167Z,19.86
2023-03-24T13:22:25.300Z,19.87
2023-03-24T13:24:53.790Z,19.88
2023-03-24T13:27:20.861Z,19.84
2023-03-24T13:29:49.878Z,19.90
2023-03-24T13:32:16.522Z,19.91
2023-03-24T13:34:55.150Z,19.99
2023-03-24T13:37:48.797Z,20.06
2023-03-24T13:40:21.082Z,20.11
2023-03-24T13:42:53.285Z,20.12
2023-03-24T13:45:27.278Z,20.21
2023-03-24T13:48:03.136Z,20.22
2023-03-24T13:50:31.494Z,20.13
2023-03-24T13:53:01.732Z,20.20
2023-03-24T13:55:29.291Z,20.18
2023-03-24T13:57:57.591Z,20.18
2023-03-24T14:00:24.972Z,20.15
2023-03-24T14:02:55.071Z,20.17
2023-03-24T14:05:30.657Z,20.16
2023-03-24T14:08:03.296Z,20.20
2023-03-24T14:10:40.410Z,20.18
2023-03-24T14:13:12.864Z,20.14
2023-03-24T14:15:58.282Z,20.17
2023-03-24T14:18:25.315Z,20.12
2023-03-24T14:20:58.110Z,20.18
2023-03-24T14:23:43.807Z,20.16
2023-03-24T14:26:14.952Z,20.19
2023-03-24T14:28:42.736Z,20.16
2023-03-24T14:31:17.293Z,20.18
2023-03-24T14:33:53.634Z,20.16
2023-03-24T14:36:25.600Z,20.17
2023-03-24T14:38:52.278Z,20.12
2023-03-24T14:41:27.348Z,20.13
2023-03-24T14:43:56.031Z,20.07
2023-03-24T14:46:22.531Z,20.05
2023-03-24T14:48:56.398Z,19.97
2023-03-24T14:51:36.636Z,19.98
2023-03-24T14:54:05.576Z,19.90
2023-03-24T14:56:35.720Z,19.91
2023-03-24T14:59:05.782Z,19.86
2023-03-24T15:01:33.798Z,19.85
2023-03-24T15:04:05.511Z,19.82
2023-03-24T15:06:32.148Z,19.78
2023-03-24T15:08:59.894Z,19.74
2023-03-24T15:11:28.517Z,19.79
2023-03-24T15:13:56.111Z,19.83
2023-03-24T15:16:25.249Z,19.86
2023-03-24T15:19:01.404Z,19.84
2023-03-24T15:21:38.964Z,19.82
2023-03-24T15:24:23.438Z,19.83
2023-03-24T15:26:52.713Z,19.79
2023-03-24T15:29:19.234Z,19.78
2023-03-24T15:31:45.748Z,19.79
2023-03-24T15:34:27.476Z,19.84
2023-03-24T15:36:55.698Z,19.88
2023-03-24T15:39:25.901Z,19.89
2023-03-24T15:41:53.021Z,19.85
2023-03-24T15:44:25.782Z,19.88
2023-03-24T15:46:54.533Z,19.79
2023-03-24T15:49:24.422Z,19.84
2023-03-24T15:51:57.091Z,19.77
2023-03-24T15:54:24.926Z,19.73
2023-03-24T15:57:21.202Z,19.67
2023-03-24T15:59:51.827Z,19.64
2023-03-24T16:02:34.022Z,19.57
2023-03-24T16:07:33.300Z,19.48
2023-03-24T16:10:04.623Z,19.44
2023-03-24T16:12:32.358Z,19.43
2023-03-24T16:14:58.874Z,19.41
2023-03-24T16:17:25.452Z,19.40
2023-03-24T16:19:51.998Z,19.38
2023-03-24T16:22:18.494Z,19.28
2023-03-24T16:24:45.007Z,19.26
2023-03-24T16:27:15.013Z,19.07
2023-03-24T16:29:42.296Z,19.19
2023-03-24T16:32:09.579Z,19.06
2023-03-24T16:34:36.867Z,19.07
2023-03-24T16:37:04.460Z,18.82
2023-03-24T16:39:31.312Z,18.89
2023-03-24T16:41:58.109Z,18.88
2023-03-24T16:44:24.635Z,18.88
2023-03-24T16:46:52.047Z,18.78
2023-03-24T16:49:19.232Z,18.75
2023-03-24T16:51:46.102Z,18.72
2023-03-24T16:54:17.617Z,18.64
2023-03-24T16:56:44.145Z,18.56
2023-03-24T16:59:12.641Z,18.54
2023-03-24T17:01:40.422Z,18.47
2023-03-24T17:04:09.809Z,18.31
2023-03-24T17:06:37.495Z,18.17
2023-03-24T17:09:06.135Z,18.02
2023-03-24T17:11:33.865Z,17.88
2023-03-24T17:14:04.892Z,17.73
2023-03-24T17:16:32.477Z,17.61
2023-03-24T17:18:58.968Z,17.48
2023-03-24T17:21:25.545Z,17.35
2023-03-24T17:23:55.113Z,17.23
2023-03-24T17:26:22.481Z,17.12
2023-03-24T17:28:48.968Z,17.02
2023-03-24T17:31:15.684Z,16.93
2023-03-24T17:33:42.584Z,16.85
2023-03-24T17:36:13.756Z,16.78
2023-03-24T17:38:40.977Z,16.71
2023-03-24T17:41:07.443Z,16.65
2023-03-24T17:43:33.965Z,16.60
2023-03-24T17:46:01.440Z,16.55
2023-03-24T17:48:28.449Z,16.51
2023-03-24T17:50:56.207Z,16.46
2023-03-24T17:53:28.664Z,16.41
2023-03-24T17:55:59.447Z,16.36
2023-03-24T17:58:30.267Z,16.34
2023-03-24T18:00:58.271Z,16.30
2023-03-24T18:03:26.017Z,16.28
2023-03-24T18:05:52.640Z,16.25
2023-03-24T18:08:19.268Z,16.23
2023-03-24T18:10:46.407Z,16.21
2023-03-24T18:13:12.996Z,16.19
2023-03-24T18:15:41.287Z,16.15
2023-03-24T18:18:08.121Z,16.13
2023-03-24T18:20:36.462Z,16.09
2023-03-24T18:23:02.927Z,16.07
2023-03-24T18:25:29.552Z,16.04
2023-03-24T18:27:56.352Z,16.02
2023-03-24T18:30:22.902Z,16.00
2023-03-24T18:32:49.592Z,15.97
2023-03-24T18:35:19.053Z,15.96
2023-03-24T18:37:45.693Z,15.93
2023-03-24T18:40:12.361Z,15.90
2023-03-24T18:42:38.941Z,15.88
2023-03-24T18:45:06.527Z,15.85
2023-03-24T18:47:33.069Z,15.83
2023-03-24T18:50:01.945Z,15.84
2023-03-24T18:52:28.531Z,15.85
2023-03-24T18:54:55.338Z,15.87
2023-03-24T18:57:22.001Z,15.87
2023-03-24T18:59:48.778Z,15.85
2023-03-24T19:02:16.080Z,15.83
2023-03-24T19:04:43.846Z,15.81
2023-03-24T19:07:14.484Z,15.77
2023-03-24T19:09:42.292Z,15.72
2023-03-24T19:12:09.007Z,15.69
2023-03-24T19:14:35.541Z,15.67
2023-03-24T19:17:02.984Z,15.64
2023-03-24T19:19:31.761Z,15.62
2023-03-24T19:21:58.705Z,15.59
2023-03-24T19:24:26.420Z,15.56
2023-03-24T19:26:53.443Z,15.54
2023-03-24T19:29:20.218Z,15.51
2023-03-24T19:31:46.998Z,15.52
2023-03-24T19:34:13.634Z,15.47
2023-03-24T19:36:46.380Z,15.35
2023-03-24T19:39:14.081Z,15.41
2023-03-24T19:41:41.290Z,15.36
2023-03-24T19:44:07.828Z,15.36
2023-03-24T19:46:34.394Z,15.37
2023-03-24T19:49:01.107Z,15.35
2023-03-24T19:51:27.582Z,15.34
2023-03-24T19:53:54.033Z,15.31
2023-03-24T19:56:21.889Z,15.31
2023-03-24T19:58:57.473Z,15.28
2023-03-24T20:01:24.166Z,15.28
2023-03-24T20:03:51.091Z,15.27
2023-03-24T20:06:19.628Z,15.27
2023-03-24T20:08:46.538Z,15.27
2023-03-24T20:11:13.230Z,15.27
2023-03-24T20:13:40.129Z,15.26
2023-03-24T20:16:06.757Z,15.25
2023-03-24T20:18:34.460Z,15.24
2023-03-24T20:21:02.292Z,15.22
2023-03-24T20:23:28.871Z,15.23
2023-03-24T20:25:58.574Z,15.22
2023-03-24T20:28:25.081Z,15.21
2023-03-24T20:30:52.509Z,15.20
2023-03-24T20:33:19.189Z,15.18
2023-03-24T20:35:45.935Z,15.16
2023-03-24T20:38:12.561Z,15.15
2023-03-24T20:40:39.200Z,15.14
2023-03-24T20:43:05.885Z,15.08
2023-03-24T20:45:33.309Z,15.10
2023-03-24T20:47:59.905Z,15.09
2023-03-24T20:50:27.653Z,15.08
2023-03-24T20:52:54.291Z,15.06
2023-03-24T20:55:20.950Z,15.03
2023-03-24T20:57:47.729Z,15.01
2023-03-24T21:00:14.523Z,15.00
2023-03-24T21:02:44.166Z,14.97
2023-03-24T21:05:10.948Z,14.96
2023-03-24T21:07:38.470Z,14.97
2023-03-24T21:10:06.588Z,14.94
2023-03-24T21:12:33.780Z,14.95
2023-03-24T21:15:00.577Z,14.93
2023-03-24T21:17:32.832Z,14.94
2023-03-24T21:20:13.305Z,14.94
2023-03-24T21:22:55.950Z,14.94
2023-03-24T21:25:24.838Z,14.92
2023-03-24T21:27:51.613Z,14.92
2023-03-24T21:30:21.618Z,14.91
2023-03-24T21:32:48.949Z,14.92
2023-03-24T21:35:16.206Z,14.92
2023-03-24T21:37:45.726Z,14.90
2023-03-24T21:40:19.883Z,14.90
2023-03-24T21:42:47.025Z,14.90
2023-03-24T21:45:15.437Z,14.89
2023-03-24T21:47:42.507Z,14.88
2023-03-24T21:50:09.356Z,14.86
2023-03-24T21:52:41.785Z,14.86
2023-03-24T21:55:10.620Z,14.85
2023-03-24T21:57:37.124Z,14.83
2023-03-24T22:00:10.755Z,14.82
2023-03-24T22:02:38.480Z,14.80
2023-03-24T22:05:05.306Z,14.79
2023-03-24T22:07:37.673Z,14.76
2023-03-24T22:10:05.765Z,14.75
2023-03-24T22:12:32.390Z,14.72
2023-03-24T22:14:58.970Z,14.70
2023-03-24T22:17:25.864Z,14.66
2023-03-24T22:19:52.496Z,14.64
2023-03-24T22:22:19.013Z,14.62
2023-03-24T22:24:45.548Z,14.59
2023-03-24T22:27:12.046Z,14.57
2023-03-24T22:29:38.670Z,14.53
2023-03-24T22:32:05.533Z,14.53
2023-03-24T22:34:32.303Z,14.52
2023-03-24T22:36:58.916Z,14.50
2023-03-24T22:39:26.200Z,14.49
2023-03-24T22:41:52.708Z,14.49
2023-03-24T22:44:19.966Z,14.47
2023-03-24T22:46:46.855Z,14.48
2023-03-24T22:49:13.487Z,14.46
2023-03-24T22:51:40.001Z,14.47
2023-03-24T22:54:06.522Z,14.46
2023-03-24T22:56:33.070Z,14.45
2023-03-24T22:58:59.935Z,14.41
2023-03-24T23:01:26.633Z,14.43
2023-03-24T23:03:53.191Z,14.44
2023-03-24T23:06:19.853Z,14.42
2023-03-24T23:08:46.333Z,14.42
2023-03-24T23:11:14.611Z,14.42
2023-03-24T23:13:41.200Z,14.40
2023-03-24T23:16:08.074Z,14.39
